Time;durP1;ratioP1;P1;durP2;ratioP2;P2;SDS_P1;SDS_P2;PMS_P1;PMS_P2;Temp;Humidity;BMP_temperature;BMP_pressure;BME280_temperature;BME280_humidity;BME280_pressure;Samples;Min_cycle;Max_cycle;Signal;HPM_P1;HPM_P2
2020/12/29 00:00:53;;;;;;;38.90;16.30;;;;;;;-6.95;63.82;101196.09;5133185;27;20450;-63
2020/12/29 00:03:19;;;;;;;44.30;18.65;;;;;;;-6.90;63.91;101229.13;5133738;27;20035;-62
2020/12/29 00:05:46;;;;;;;39.45;18.30;;;;;;;-6.99;64.21;101229.88;5133173;27;20126;-62
2020/12/29 00:08:12;;;;;;;33.70;14.73;;;;;;;-7.43;63.88;101135.59;5133219;27;20379;-63
2020/12/29 00:10:38;;;;;;;44.00;19.38;;;;;;;-6.87;63.54;101231.78;5133516;27;20080;-55
2020/12/29 00:13:05;;;;;;;41.47;19.23;;;;;;;-7.11;64.15;101196.75;5133499;27;20113;-62
2020/12/29 00:15:31;;;;;;;41.88;16.33;;;;;;;-6.99;64.10;101196.03;5132834;27;20474;-62
2020/12/29 00:17:56;;;;;;;30.17;13.10;;;;;;;-7.28;63.66;101134.03;5133536;27;20042;-63
2020/12/29 00:20:22;;;;;;;37.35;18.35;;;;;;;-6.97;63.68;101209.97;5132865;27;20031;-62
2020/12/29 00:22:47;;;;;;;37.38;18.08;;;;;;;-7.17;63.95;101176.72;5132782;27;20072;-60
2020/12/29 00:25:19;;;;;;;43.50;18.80;;;;;;;-6.99;63.50;101203.84;5133313;27;20031;-63
2020/12/29 00:27:45;;;;;;;35.13;14.75;;;;;;;-6.85;63.63;101215.31;5133072;27;20027;-63
2020/12/29 00:30:11;;;;;;;40.15;17.27;;;;;;;-6.92;63.45;101211.75;5130351;27;20031;-63
2020/12/29 00:32:36;;;;;;;28.95;13.40;;;;;;;-6.97;63.61;101209.97;5128028;27;20046;-62
2020/12/29 00:35:03;;;;;;;38.40;16.80;;;;;;;-6.92;63.41;101195.28;5130601;27;20126;-59
2020/12/29 00:37:29;;;;;;;38.58;17.20;;;;;;;-7.21;63.64;101172.31;5130562;27;20385;-63
2020/12/29 00:39:54;;;;;;;36.55;16.05;;;;;;;-6.88;63.45;101197.06;5130674;27;20031;-60
2020/12/29 00:42:20;;;;;;;29.50;13.45;;;;;;;-6.84;63.39;101191.03;5130643;27;20031;-59
2020/12/29 00:44:45;;;;;;;34.65;16.38;;;;;;;-6.92;63.28;101192.66;5130687;27;20039;-59
2020/12/29 00:47:11;;;;;;;31.17;13.32;;;;;;;-6.85;63.11;101180.63;5131272;27;20031;-63
2020/12/29 00:49:37;;;;;;;40.55;18.00;;;;;;;-6.96;62.93;101167.47;5132674;27;20031;-62
2020/12/29 00:52:03;;;;;;;35.78;15.60;;;;;;;-7.06;63.32;101174.25;5132057;27;20042;-63
2020/12/29 00:54:29;;;;;;;37.13;16.95;;;;;;;-7.04;63.44;101175.16;5132261;27;20035;-63
2020/12/29 00:56:54;;;;;;;36.65;15.95;;;;;;;-6.99;63.78;101181.28;5132530;27;20033;-59
2020/12/29 00:59:20;;;;;;;40.92;16.92;;;;;;;-6.79;63.15;101184.16;5132093;27;20502;-63
2020/12/29 01:01:56;;;;;;;34.55;15.88;;;;;;;-7.06;63.04;101146.47;5132227;27;20154;-63
2020/12/29 01:04:22;;;;;;;31.80;15.73;;;;;;;-6.80;62.69;101158.09;5132563;27;20058;-64
2020/12/29 01:06:48;;;;;;;35.80;16.77;;;;;;;-6.83;62.69;101148.50;5132425;27;20494;-62
2020/12/29 01:09:14;;;;;;;35.78;14.65;;;;;;;-6.49;62.30;101169.75;5131909;27;20397;-62
2020/12/29 01:11:39;;;;;;;28.30;12.90;;;;;;;-6.52;61.85;101154.06;5132377;27;20072;-61
2020/12/29 01:14:05;;;;;;;28.50;11.60;;;;;;;-6.66;61.80;101087.94;5132410;27;20110;-63
2020/12/29 01:16:30;;;;;;;33.95;15.30;;;;;;;-6.29;61.79;101145.63;5132338;27;20035;-62
2020/12/29 01:18:56;;;;;;;30.92;13.48;;;;;;;-6.84;61.22;101032.19;5131685;27;20031;-63
2020/12/29 01:21:21;;;;;;;34.53;14.40;;;;;;;-6.03;61.20;101142.38;5131794;27;20035;-62
2020/12/29 01:23:46;;;;;;;32.53;13.75;;;;;;;-5.99;61.22;101151.09;5131991;27;20505;-61
2020/12/29 01:26:20;;;;;;;30.98;13.85;;;;;;;-5.96;61.01;101149.41;5132026;27;20039;-57
2020/12/29 01:28:46;;;;;;;33.65;15.02;;;;;;;-5.95;61.35;101150.25;5131762;27;20056;-62
2020/12/29 01:31:12;;;;;;;31.10;14.73;;;;;;;-6.12;61.64;101124.97;5128258;27;20561;-63
2020/12/29 01:33:37;;;;;;;30.48;14.38;;;;;;;-5.97;61.34;101152.88;5092123;28;20040;-63
2020/12/29 01:36:03;;;;;;;30.83;15.15;;;;;;;-5.96;61.58;101152.00;5108584;28;20414;-63
2020/12/29 01:38:28;;;;;;;28.40;13.32;;;;;;;-5.98;61.40;101145.91;5109179;28;20089;-60
2020/12/29 01:40:59;;;;;;;34.30;15.05;;;;;;;-6.12;61.46;101121.47;5109186;28;20084;-60
2020/12/29 01:43:31;;;;;;;25.92;11.55;;;;;;;-5.84;60.83;101132.09;5108661;28;20063;-61
2020/12/29 01:45:57;;;;;;;35.13;15.32;;;;;;;-6.08;61.41;101118.91;5109264;28;20038;-58
2020/12/29 01:48:26;;;;;;;27.77;14.13;;;;;;;-6.02;61.31;101115.47;5109719;28;20036;-63
2020/12/29 01:50:52;;;;;;;30.75;14.07;;;;;;;-5.97;61.07;101134.63;5110660;28;20125;-62
2020/12/29 01:53:18;;;;;;;29.15;14.00;;;;;;;-6.02;61.36;101107.66;5110704;28;20057;-62
2020/12/29 01:55:43;;;;;;;23.13;10.38;;;;;;;-6.06;60.92;101096.31;5111067;28;20032;-62
2020/12/29 01:58:09;;;;;;;29.95;14.88;;;;;;;-6.02;60.76;101086.81;5110958;28;20041;-62
2020/12/29 02:00:35;;;;;;;25.58;11.38;;;;;;;-5.81;61.00;101116.47;5110205;28;20120;-62
2020/12/29 02:03:00;;;;;;;30.50;14.60;;;;;;;-5.92;60.97;101114.66;5110460;28;20039;-63
2020/12/29 02:05:27;;;;;;;31.58;14.18;;;;;;;-5.96;61.68;101118.09;5110517;28;20050;-61
2020/12/29 02:07:53;;;;;;;30.02;13.70;;;;;;;-5.97;61.88;101115.47;5110354;28;20133;-62
2020/12/29 02:10:18;;;;;;;34.22;14.82;;;;;;;-6.02;61.59;101114.59;5110436;28;20027;-62
2020/12/29 02:12:44;;;;;;;23.77;11.07;;;;;;;-5.95;62.15;101116.34;5110911;28;20035;-63
2020/12/29 02:15:10;;;;;;;29.52;13.95;;;;;;;-6.21;61.84;101084.03;5110707;28;20067;-62
2020/12/29 02:17:36;;;;;;;24.48;11.70;;;;;;;-5.94;62.10;101100.72;5110166;28;20462;-64
2020/12/29 02:20:05;;;;;;;31.98;14.60;;;;;;;-5.92;61.80;101090.28;5110128;28;20383;-62
2020/12/29 02:22:31;;;;;;;31.85;14.50;;;;;;;-6.01;61.93;101091.16;5110528;28;20043;-61
2020/12/29 02:24:56;;;;;;;27.70;13.15;;;;;;;-6.08;62.42;101082.41;5110274;28;20039;-62
2020/12/29 02:27:24;;;;;;;27.98;12.13;;;;;;;-5.96;62.33;101086.81;5110567;28;20471;-61
2020/12/29 02:29:49;;;;;;;25.75;12.75;;;;;;;-5.99;62.25;101096.34;5110179;28;20027;-62
2020/12/29 02:32:15;;;;;;;26.38;11.93;;;;;;;-6.11;62.36;101037.16;5111601;28;20474;-62
2020/12/29 02:34:42;;;;;;;24.73;12.20;;;;;;;-5.93;62.42;101071.19;5128799;28;20086;-61
2020/12/29 02:37:08;;;;;;;24.60;12.88;;;;;;;-5.92;62.48;101065.09;5128186;28;20027;-61
2020/12/29 02:39:35;;;;;;;24.70;12.50;;;;;;;-5.89;62.14;101071.19;5128634;28;20031;-60
2020/12/29 02:42:01;;;;;;;22.50;10.80;;;;;;;-5.81;62.54;101069.50;5128378;28;20100;-62
2020/12/29 02:44:27;;;;;;;23.42;11.75;;;;;;;-5.98;62.59;101031.16;5128245;28;20497;-61
2020/12/29 02:46:52;;;;;;;25.67;12.43;;;;;;;-5.72;61.81;101058.25;5128483;28;20027;-62
2020/12/29 02:49:18;;;;;;;17.40;8.80;;;;;;;-5.74;62.04;101046.94;5129351;28;20117;-60
2020/12/29 02:51:44;;;;;;;20.30;9.20;;;;;;;-5.62;61.93;101063.56;5131027;28;20031;-63
2020/12/29 02:54:11;;;;;;;16.75;7.10;;;;;;;-5.58;61.60;101058.34;5130485;28;20084;-62
2020/12/29 02:56:37;;;;;;;27.58;11.77;;;;;;;-5.68;62.08;101045.25;5130438;28;20057;-61
2020/12/29 02:59:03;;;;;;;25.67;12.00;;;;;;;-5.64;62.13;101046.16;5131807;27;20402;-62
2020/12/29 03:01:28;;;;;;;25.75;11.82;;;;;;;-5.67;62.22;101048.72;5134788;27;20051;-61
2020/12/29 03:03:55;;;;;;;24.27;11.80;;;;;;;-5.68;62.46;101034.81;5134390;27;20084;-61
2020/12/29 03:06:21;;;;;;;14.25;7.38;;;;;;;-5.56;61.70;101030.53;5134357;27;20035;-62
2020/12/29 03:08:46;;;;;;;22.80;11.38;;;;;;;-5.62;61.62;101027.03;5135008;27;20058;-62
2020/12/29 03:11:12;;;;;;;14.93;7.13;;;;;;;-5.48;61.90;101026.22;5134807;27;20366;-61
2020/12/29 03:13:37;;;;;;;16.45;8.35;;;;;;;-5.48;61.47;101023.63;5134214;27;20865;-62
2020/12/29 03:16:03;;;;;;;21.48;10.50;;;;;;;-5.44;61.81;101022.78;5134057;27;20479;-61
2020/12/29 03:18:28;;;;;;;18.58;10.15;;;;;;;-5.47;61.67;101014.94;5134971;27;20023;-61
2020/12/29 03:20:54;;;;;;;23.88;10.75;;;;;;;-5.43;61.89;101028.84;5134369;27;20035;-62
2020/12/29 03:23:19;;;;;;;21.35;9.40;;;;;;;-5.50;62.03;101012.31;5134191;27;20024;-60
2020/12/29 03:25:45;;;;;;;22.13;10.43;;;;;;;-5.38;61.93;101021.94;5134594;27;20058;-62
2020/12/29 03:28:10;;;;;;;22.60;10.18;;;;;;;-5.51;62.02;101005.34;5134402;27;20027;-62
2020/12/29 03:30:36;;;;;;;21.38;10.07;;;;;;;-5.36;61.71;101008.00;5115792;27;20489;-61
2020/12/29 03:33:01;;;;;;;18.85;9.85;;;;;;;-5.34;62.04;101016.72;5129218;27;20054;-60
2020/12/29 03:35:26;;;;;;;13.20;6.85;;;;;;;-5.34;61.83;101006.25;5093134;28;20069;-61
2020/12/29 03:37:52;;;;;;;22.40;11.05;;;;;;;-5.41;61.99;101001.03;5110702;28;20044;-62
2020/12/29 03:40:17;;;;;;;17.08;9.00;;;;;;;-5.31;61.39;100989.75;5111819;28;20382;-62
2020/12/29 03:42:43;;;;;;;20.83;10.82;;;;;;;-5.23;61.77;100993.25;5111397;28;20035;-61
2020/12/29 03:45:08;;;;;;;18.00;9.65;;;;;;;-5.30;61.69;100999.34;5111245;28;20065;-61
2020/12/29 03:47:34;;;;;;;20.40;10.52;;;;;;;-5.39;61.75;100974.06;5111627;28;20494;-61
2020/12/29 03:49:59;;;;;;;22.30;10.90;;;;;;;-5.64;61.73;100915.69;5113242;27;20035;-62
2020/12/29 03:52:25;;;;;;;18.52;9.05;;;;;;;-5.16;61.50;100991.53;5110318;28;20487;-59
2020/12/29 03:54:50;;;;;;;24.17;10.98;;;;;;;-5.26;61.43;100984.56;5111203;28;20042;-60
2020/12/29 03:57:16;;;;;;;24.40;8.98;;;;;;;-5.55;61.75;100940.94;5111452;28;20036;-61
2020/12/29 03:59:41;;;;;;;13.15;6.22;;;;;;;-5.11;61.18;100988.97;5111247;28;20031;-61
2020/12/29 04:02:09;;;;;;;19.83;10.68;;;;;;;-5.61;61.10;100947.03;5110822;28;20067;-63
2020/12/29 04:04:36;;;;;;;18.02;8.68;;;;;;;-5.92;61.73;100887.75;5112094;27;20043;-57
2020/12/29 04:07:02;;;;;;;26.27;11.30;;;;;;;-5.21;61.91;100996.75;5110837;27;20655;-62
2020/12/29 04:09:30;;;;;;;21.23;10.90;;;;;;;-5.35;61.77;100996.69;5110383;28;20036;-61
2020/12/29 04:11:55;;;;;;;24.75;11.15;;;;;;;-5.26;61.98;101016.75;5110676;28;20036;-59
2020/12/29 04:14:21;;;;;;;21.83;11.07;;;;;;;-5.16;61.50;101011.56;5111069;28;20031;-59
2020/12/29 04:16:46;;;;;;;20.60;10.35;;;;;;;-5.22;61.75;101013.28;5111239;28;20042;-61
2020/12/29 04:19:12;;;;;;;22.63;8.65;;;;;;;-5.33;61.92;100966.25;5111103;28;20031;-63
2020/12/29 04:21:38;;;;;;;18.10;9.13;;;;;;;-5.10;61.27;101002.00;5112191;27;20038;-61
2020/12/29 04:24:03;;;;;;;19.17;9.23;;;;;;;-5.11;61.67;101017.69;5110190;28;20553;-61
2020/12/29 04:26:29;;;;;;;22.13;10.55;;;;;;;-5.10;61.30;100991.56;5110310;28;20034;-62
2020/12/29 04:28:54;;;;;;;23.60;9.52;;;;;;;-5.12;61.55;100982.84;5110042;28;20040;-62
2020/12/29 04:31:22;;;;;;;23.73;11.27;;;;;;;-5.12;61.77;101003.72;5110038;28;20038;-63
2020/12/29 04:33:48;;;;;;;18.48;8.82;;;;;;;-5.14;61.66;100955.00;5110311;28;20067;-61
2020/12/29 04:36:14;;;;;;;18.83;9.20;;;;;;;-5.02;61.81;100977.66;5111549;27;20028;-63
2020/12/29 04:38:39;;;;;;;15.75;8.77;;;;;;;-5.38;60.96;100907.94;5129681;27;20045;-63
2020/12/29 04:41:05;;;;;;;17.20;9.48;;;;;;;-4.99;61.82;100972.44;5130027;27;20085;-61
2020/12/29 04:43:32;;;;;;;11.75;5.35;;;;;;;-5.08;61.41;100937.59;5130768;27;20035;-62
2020/12/29 04:46:02;;;;;;;21.73;9.68;;;;;;;-4.94;61.26;100979.44;5131206;27;20027;-59
2020/12/29 04:48:28;;;;;;;19.83;10.05;;;;;;;-5.09;61.24;100959.34;5130563;27;20080;-61
2020/12/29 04:51:02;;;;;;;19.77;10.35;;;;;;;-4.93;61.25;100978.56;5130661;27;20031;-62
2020/12/29 04:53:31;;;;;;;21.17;10.70;;;;;;;-4.99;61.82;100983.75;5125908;27;20035;-63
2020/12/29 04:55:58;;;;;;;19.67;9.40;;;;;;;-5.07;61.52;100947.16;5130267;27;20070;-59
2020/12/29 04:58:26;;;;;;;21.60;11.18;;;;;;;-4.94;61.60;100952.41;5129737;27;20035;-58
2020/12/29 05:00:52;;;;;;;22.02;10.20;;;;;;;-4.86;61.70;100971.56;5129622;27;20082;-61
2020/12/29 05:03:17;;;;;;;20.52;9.63;;;;;;;-4.83;61.91;100978.56;5130245;27;20031;-61
2020/12/29 05:05:43;;;;;;;15.13;8.90;;;;;;;-4.80;61.20;100957.66;5130093;27;20031;-61
2020/12/29 05:08:08;;;;;;;24.17;11.02;;;;;;;-4.79;61.10;100943.72;5125329;27;20038;-63
2020/12/29 05:10:34;;;;;;;19.52;10.57;;;;;;;-4.84;61.86;100950.69;5129833;27;20057;-61
2020/12/29 05:12:59;;;;;;;18.20;9.20;;;;;;;-4.69;61.61;100968.13;5129859;27;20461;-60
2020/12/29 05:15:25;;;;;;;16.40;8.02;;;;;;;-4.70;61.09;100966.38;5130204;27;20117;-56
2020/12/29 05:17:50;;;;;;;14.27;6.18;;;;;;;-4.58;61.54;100974.25;5130037;27;20117;-62
2020/12/29 05:20:19;;;;;;;21.05;10.73;;;;;;;-4.79;61.52;100954.19;5129591;27;20515;-60
2020/12/29 05:22:45;;;;;;;21.02;10.10;;;;;;;-4.70;61.00;100964.66;5129042;27;20035;-55
2020/12/29 05:25:14;;;;;;;14.35;6.10;;;;;;;-4.54;61.31;100975.97;5113738;27;20039;-60
2020/12/29 05:27:40;;;;;;;17.52;10.05;;;;;;;-4.77;61.62;100929.81;5108930;28;20101;-61
2020/12/29 05:30:06;;;;;;;20.00;10.63;;;;;;;-4.67;61.17;100967.25;5108782;28;20478;-61
2020/12/29 05:32:37;;;;;;;20.85;9.50;;;;;;;-4.56;61.36;100948.97;5108672;28;20478;-63
2020/12/29 05:35:08;;;;;;;19.40;10.20;;;;;;;-4.64;61.38;100946.34;5108468;28;20035;-61
2020/12/29 05:37:35;;;;;;;21.85;11.27;;;;;;;-4.54;61.24;100960.31;5108916;28;20555;-64
2020/12/29 05:40:25;;;;;;;19.10;8.23;;;;;;;-4.42;61.43;100948.97;5109525;28;20048;-62
2020/12/29 05:42:54;;;;;;;21.90;9.23;;;;;;;-4.47;60.84;100935.91;5110969;28;20039;-61
2020/12/29 05:45:19;;;;;;;17.52;8.30;;;;;;;-4.37;61.19;100951.56;5110605;28;20051;-62
2020/12/29 05:47:52;;;;;;;19.33;8.63;;;;;;;-4.37;60.97;100928.91;5110500;28;20057;-61
2020/12/29 05:50:19;;;;;;;16.55;9.80;;;;;;;-4.39;61.00;100932.38;5110696;28;20032;-59
2020/12/29 05:52:50;;;;;;;16.58;7.38;;;;;;;-4.47;60.61;100917.59;5129142;27;20486;-61
2020/12/29 05:55:16;;;;;;;20.20;10.35;;;;;;;-4.34;60.75;100925.41;5127774;27;20031;-60
2020/12/29 05:57:41;;;;;;;17.65;9.88;;;;;;;-4.32;60.45;100918.47;5129948;27;20443;-61
2020/12/29 06:00:07;;;;;;;18.42;8.35;;;;;;;-4.30;60.73;100953.31;5129475;27;20106;-62
2020/12/29 06:02:33;;;;;;;17.88;8.70;;;;;;;-4.25;60.34;100919.28;5120212;27;20035;-60
2020/12/29 06:05:00;;;;;;;18.00;9.55;;;;;;;-4.38;60.29;100921.06;5127649;27;20043;-60
2020/12/29 06:07:27;;;;;;;22.10;11.10;;;;;;;-4.34;60.29;100909.72;5127026;27;20027;-60
2020/12/29 06:09:54;;;;;;;20.17;10.27;;;;;;;-4.25;60.61;100921.91;5106193;27;20141;-62
2020/12/29 06:12:42;;;;;;;20.50;10.00;;;;;;;-4.18;60.46;100957.66;5127393;27;20023;-59
2020/12/29 06:15:09;;;;;;;17.15;10.43;;;;;;;-4.14;60.12;100942.81;5126846;27;20115;-60
2020/12/29 06:17:43;;;;;;;20.02;10.68;;;;;;;-4.11;60.19;100946.31;5128198;27;20039;-61
2020/12/29 06:20:16;;;;;;;23.05;10.52;;;;;;;-4.03;60.17;100952.38;5130687;27;20118;-63
2020/12/29 06:22:45;;;;;;;21.40;10.70;;;;;;;-4.07;60.07;100915.78;5130851;27;20035;-61
2020/12/29 06:25:16;;;;;;;13.65;5.88;;;;;;;-4.11;59.42;100890.50;5130978;27;20035;-64
2020/12/29 06:27:49;;;;;;;19.95;9.85;;;;;;;-4.27;59.35;100833.03;5112103;27;20092;-63
2020/12/29 06:30:17;;;;;;;20.25;10.82;;;;;;;-3.82;59.41;100934.03;5130778;28;20031;-62
2020/12/29 06:32:44;;;;;;;20.42;10.82;;;;;;;-3.76;59.81;100949.72;5130933;27;20031;-63
2020/12/29 06:35:10;;;;;;;22.38;12.32;;;;;;;-3.73;59.16;100918.28;5137307;27;20035;-61
2020/12/29 06:37:39;;;;;;;21.70;10.98;;;;;;;-3.66;59.15;100930.47;5137312;27;20039;-63
2020/12/29 06:40:07;;;;;;;25.02;11.75;;;;;;;-3.55;59.29;100921.72;5137836;27;20047;-60
2020/12/29 06:42:37;;;;;;;24.60;11.35;;;;;;;-3.54;58.56;100933.91;5137472;27;20102;-61
2020/12/29 06:45:06;;;;;;;22.10;12.13;;;;;;;-3.51;59.06;100939.13;5137626;27;20035;-62
2020/12/29 06:47:31;;;;;;;19.02;9.82;;;;;;;-3.45;58.33;100915.53;5137493;27;20031;-61
2020/12/29 06:49:57;;;;;;;23.02;12.07;;;;;;;-3.44;59.32;100906.81;5137887;27;20113;-62
2020/12/29 06:52:25;;;;;;;19.48;9.55;;;;;;;-3.26;58.60;100892.72;5137365;27;20486;-61
2020/12/29 06:54:57;;;;;;;22.73;11.88;;;;;;;-3.38;58.31;100874.47;5137110;27;20486;-68
2020/12/29 06:57:46;;;;;;;25.48;11.25;;;;;;;-3.11;58.02;100897.03;5137445;27;20046;-68
2020/12/29 07:00:11;;;;;;;20.20;11.45;;;;;;;-3.04;58.36;100888.22;5137363;27;20027;-68
2020/12/29 07:02:39;;;;;;;21.80;11.20;;;;;;;-2.86;58.14;100885.47;5137477;27;20097;-67
2020/12/29 07:05:38;;;;;;;22.15;12.07;;;;;;;-2.74;57.21;100867.03;5137335;27;20047;-67
2020/12/29 07:08:05;;;;;;;17.77;9.77;;;;;;;-2.71;57.09;100915.94;5136553;27;20031;-67
2020/12/29 07:10:42;;;;;;;18.23;9.73;;;;;;;-2.95;56.82;100879.44;5137114;27;20039;-66
2020/12/29 07:13:09;;;;;;;21.83;11.55;;;;;;;-3.00;57.71;100888.19;5137344;27;20031;-69
2020/12/29 07:15:44;;;;;;;22.13;11.80;;;;;;;-2.96;57.43;100897.78;5136524;27;20107;-70
2020/12/29 07:18:10;;;;;;;18.33;10.02;;;;;;;-2.95;57.62;100891.66;5136120;27;20027;-69
2020/12/29 07:20:35;;;;;;;26.13;11.85;;;;;;;-3.03;57.84;100865.50;5136429;27;20042;-67
2020/12/29 07:23:06;;;;;;;19.85;10.85;;;;;;;-2.73;57.07;100918.59;5136575;27;20023;-69
2020/12/29 07:25:33;;;;;;;21.17;13.00;;;;;;;-2.92;57.11;100891.63;5117970;27;20039;-73
2020/12/29 07:28:03;;;;;;;17.10;8.55;;;;;;;-2.80;57.01;100922.13;5136210;27;20074;-66
2020/12/29 07:30:31;;;;;;;24.10;13.45;;;;;;;-2.97;57.73;100919.63;5136030;27;20042;-69
2020/12/29 07:32:59;;;;;;;20.98;12.35;;;;;;;-3.12;57.50;100879.56;5136250;27;20127;-71
2020/12/29 07:35:27;;;;;;;21.55;11.90;;;;;;;-2.94;57.59;100904.75;5136314;27;20110;-70
2020/12/29 07:37:56;;;;;;;20.48;11.68;;;;;;;-2.90;57.54;100882.88;5136047;27;20035;-66
2020/12/29 07:40:23;;;;;;;26.10;13.35;;;;;;;-2.96;57.83;100905.63;5118054;27;20088;-70
2020/12/29 07:42:48;;;;;;;16.65;8.65;;;;;;;-2.83;57.88;100891.56;5136269;27;20521;-70
2020/12/29 07:45:14;;;;;;;22.02;12.57;;;;;;;-2.83;57.35;100885.44;5133497;27;20031;-68
2020/12/29 07:47:39;;;;;;;23.02;12.57;;;;;;;-2.94;57.13;100888.16;5132954;27;20038;-70
2020/12/29 07:50:05;;;;;;;18.13;10.52;;;;;;;-2.85;57.60;100888.09;5133044;27;20081;-68
2020/12/29 07:52:30;;;;;;;17.45;8.48;;;;;;;-2.74;57.03;100893.25;5133187;27;20387;-72
2020/12/29 07:55:09;;;;;;;23.83;12.85;;;;;;;-2.82;57.13;100888.06;5132689;27;20118;-70
2020/12/29 07:57:35;;;;;;;22.23;10.85;;;;;;;-2.76;57.49;100876.66;5132558;27;20123;-71
2020/12/29 08:00:15;;;;;;;24.20;12.57;;;;;;;-2.72;57.32;100874.88;5133145;27;20078;-60
2020/12/29 08:02:48;;;;;;;22.30;10.05;;;;;;;-2.84;57.49;100836.53;5132188;27;20047;-72
2020/12/29 08:05:14;;;;;;;23.85;13.43;;;;;;;-2.93;57.07;100837.47;5132708;27;20047;-71
2020/12/29 08:07:40;;;;;;;21.75;13.05;;;;;;;-2.81;56.96;100857.47;5132610;27;20502;-71
2020/12/29 08:10:05;;;;;;;19.92;11.25;;;;;;;-2.83;57.22;100854.00;5132716;27;20122;-72
2020/12/29 08:12:31;;;;;;;22.55;11.85;;;;;;;-2.68;57.54;100852.97;5133125;27;20506;-70
2020/12/29 08:14:56;;;;;;;21.48;11.80;;;;;;;-2.58;57.53;100870.38;5121652;27;20034;-69
2020/12/29 08:17:22;;;;;;;21.73;12.50;;;;;;;-2.53;57.12;100855.47;5114497;27;20027;-69
2020/12/29 08:19:58;;;;;;;18.73;10.50;;;;;;;-2.33;57.22;100864.91;5112217;28;20490;-69
2020/12/29 08:22:26;;;;;;;24.17;13.18;;;;;;;-2.30;56.64;100859.63;5111876;28;20060;-71
2020/12/29 08:24:52;;;;;;;25.13;11.98;;;;;;;-2.16;56.34;100843.72;5112656;28;20030;-70
2020/12/29 08:27:18;;;;;;;26.52;12.65;;;;;;;-2.22;56.32;100828.91;5112465;28;20039;-66
2020/12/29 08:29:44;;;;;;;19.35;11.02;;;;;;;-2.11;55.87;100843.66;5093467;28;20050;-70
2020/12/29 08:32:11;;;;;;;18.83;10.90;;;;;;;-2.21;56.34;100827.16;5112058;28;20129;-70
2020/12/29 08:34:38;;;;;;;21.05;11.55;;;;;;;-2.25;56.76;100847.31;5112257;28;20023;-71
2020/12/29 08:37:05;;;;;;;21.33;10.95;;;;;;;-2.27;56.10;100830.72;5112309;28;20039;-68
2020/12/29 08:39:33;;;;;;;20.52;10.55;;;;;;;-2.14;56.34;100841.09;5112108;28;20032;-73
2020/12/29 08:42:02;;;;;;;22.23;10.85;;;;;;;-2.06;56.10;100820.88;5112141;28;20039;-70
2020/12/29 08:44:30;;;;;;;17.25;10.25;;;;;;;-2.09;55.86;100831.41;5112693;27;20092;-71
2020/12/29 08:46:55;;;;;;;18.38;10.35;;;;;;;-2.35;55.92;100798.47;5111899;27;20119;-70
2020/12/29 08:49:29;;;;;;;14.10;6.97;;;;;;;-2.52;55.96;100775.91;5111884;28;20142;-71
2020/12/29 08:51:54;;;;;;;18.33;9.48;;;;;;;-2.31;56.00;100813.28;5093722;28;20050;-71
2020/12/29 08:54:20;;;;;;;15.65;9.13;;;;;;;-2.22;55.91;100825.44;5111921;28;20492;-71
2020/12/29 08:56:46;;;;;;;17.92;9.68;;;;;;;-2.08;55.93;100818.25;5110941;28;20035;-69
2020/12/29 08:59:16;;;;;;;15.63;7.97;;;;;;;-1.97;55.47;100781.38;5076635;28;20062;-70
2020/12/29 09:01:44;;;;;;;15.43;8.20;;;;;;;-1.67;55.24;100820.34;5111395;28;20063;-70
2020/12/29 09:04:42;;;;;;;18.55;9.15;;;;;;;-1.67;55.08;100792.34;5111698;28;20109;-70
2020/12/29 09:07:11;;;;;;;20.33;10.48;;;;;;;-1.76;54.86;100787.22;5111841;28;20142;-69
2020/12/29 09:09:52;;;;;;;18.13;10.40;;;;;;;-1.81;54.81;100807.41;5111764;28;20055;-69
2020/12/29 09:12:22;;;;;;;18.30;9.98;;;;;;;-1.90;55.13;100805.78;5111540;28;20488;-70
2020/12/29 09:14:52;;;;;;;17.70;9.52;;;;;;;-1.94;54.93;100789.19;5111707;28;20440;-62
2020/12/29 09:17:18;;;;;;;16.73;9.85;;;;;;;-2.06;55.35;100771.00;5111236;28;20118;-69
2020/12/29 09:20:11;;;;;;;19.95;9.30;;;;;;;-1.98;55.71;100770.91;5111328;28;20062;-68
2020/12/29 09:22:49;;;;;;;14.82;7.68;;;;;;;-1.78;55.03;100783.75;5111145;28;20043;-69
2020/12/29 09:25:38;;;;;;;14.43;8.20;;;;;;;-1.91;55.36;100776.06;5111052;28;20074;-71
2020/12/29 09:28:12;;;;;;;14.18;6.75;;;;;;;-2.51;55.22;100711.25;5111334;28;20039;-68
2020/12/29 09:30:40;;;;;;;11.88;6.97;;;;;;;-2.63;55.71;100702.63;5111336;28;20043;-70
2020/12/29 09:33:05;;;;;;;17.80;9.70;;;;;;;-2.26;56.50;100792.25;5111394;28;20071;-70
2020/12/29 09:35:32;;;;;;;11.90;6.80;;;;;;;-2.10;56.15;100771.94;5093431;28;20112;-71
2020/12/29 09:37:58;;;;;;;12.05;7.65;;;;;;;-2.18;55.66;100786.00;5111616;28;20036;-70
2020/12/29 09:40:24;;;;;;;14.38;8.00;;;;;;;-2.25;56.04;100758.13;5111584;28;20126;-71
2020/12/29 09:42:50;;;;;;;16.33;9.30;;;;;;;-2.20;55.93;100777.28;5111419;28;20552;-72
2020/12/29 09:45:20;;;;;;;16.42;8.63;;;;;;;-2.13;55.93;100777.22;5111183;28;20043;-70
2020/12/29 09:47:46;;;;;;;17.58;9.70;;;;;;;-2.37;56.44;100739.91;5110526;28;20118;-67
2020/12/29 09:50:13;;;;;;;14.85;8.10;;;;;;;-2.11;56.22;100783.31;5110484;28;20466;-67
2020/12/29 09:52:38;;;;;;;13.93;7.75;;;;;;;-2.61;56.00;100676.41;5109973;28;20028;-70
2020/12/29 09:55:04;;;;;;;13.30;6.93;;;;;;;-2.06;56.17;100776.25;5110693;28;20494;-71
2020/12/29 09:57:30;;;;;;;11.18;5.93;;;;;;;-2.10;56.32;100740.44;5111095;28;20482;-70
2020/12/29 09:59:55;;;;;;;16.08;8.32;;;;;;;-2.13;56.38;100757.09;5109852;28;20055;-70
2020/12/29 10:02:21;;;;;;;11.25;6.05;;;;;;;-2.14;56.25;100744.84;5110276;28;20587;-73
2020/12/29 10:04:47;;;;;;;17.55;9.77;;;;;;;-2.33;56.43;100742.47;5111600;27;20039;-70
2020/12/29 10:07:12;;;;;;;12.10;6.75;;;;;;;-2.29;56.18;100717.06;5120718;27;20051;-73
2020/12/29 10:09:38;;;;;;;12.88;7.65;;;;;;;-2.46;56.69;100686.69;5106296;28;20019;-75
2020/12/29 10:12:03;;;;;;;10.85;6.38;;;;;;;-2.32;56.85;100704.84;5128066;27;20478;-64
2020/12/29 10:14:29;;;;;;;11.05;5.55;;;;;;;-2.09;56.00;100721.19;5083453;28;20027;-72
2020/12/29 10:16:54;;;;;;;14.77;6.97;;;;;;;-2.12;56.43;100750.09;5129103;27;20039;-74
2020/12/29 10:19:20;;;;;;;12.32;7.05;;;;;;;-2.54;56.40;100667.56;5121020;27;20541;-71
2020/12/29 10:21:56;;;;;;;14.23;8.93;;;;;;;-2.14;56.45;100723.88;5148094;27;20039;-67
2020/12/29 10:24:22;;;;;;;15.18;8.50;;;;;;;-2.14;56.54;100749.25;5131104;27;20031;-71
2020/12/29 10:26:49;;;;;;;11.02;5.88;;;;;;;-2.07;55.92;100715.00;5114032;27;20084;-69
2020/12/29 10:29:15;;;;;;;14.63;8.00;;;;;;;-2.38;56.18;100704.09;5130178;27;20039;-71
2020/12/29 10:31:40;;;;;;;12.68;7.20;;;;;;;-2.15;56.23;100713.41;5130820;28;20059;-71
2020/12/29 10:34:06;;;;;;;15.32;8.43;;;;;;;-2.15;56.05;100723.91;5131233;28;20031;-72
2020/12/29 10:36:38;;;;;;;14.55;8.93;;;;;;;-2.28;56.49;100705.69;5130581;28;20053;-72
2020/12/29 10:39:05;;;;;;;13.57;7.97;;;;;;;-2.22;56.59;100720.50;5131283;28;20433;-69
2020/12/29 10:41:32;;;;;;;10.50;6.35;;;;;;;-2.09;56.53;100731.69;5131917;28;20074;-72
2020/12/29 10:43:58;;;;;;;16.65;8.77;;;;;;;-2.12;56.17;100750.09;5131904;28;20046;-70
2020/12/29 10:46:24;;;;;;;12.25;5.90;;;;;;;-1.85;55.55;100719.09;5129540;28;20035;-70
2020/12/29 10:48:50;;;;;;;17.50;8.57;;;;;;;-2.09;56.14;100727.28;5130674;28;20034;-71
2020/12/29 10:51:24;;;;;;;14.55;6.93;;;;;;;-2.02;55.82;100697.47;5131283;28;20031;-73
2020/12/29 10:53:51;;;;;;;16.15;7.90;;;;;;;-1.97;55.73;100707.88;5130552;28;20501;-73
2020/12/29 10:56:16;;;;;;;13.02;7.00;;;;;;;-2.07;55.90;100703.66;5130377;28;20038;-72
2020/12/29 10:58:42;;;;;;;15.48;6.97;;;;;;;-2.18;55.88;100657.44;5130622;28;20043;-73
2020/12/29 11:01:13;;;;;;;14.75;7.70;;;;;;;-1.92;55.91;100710.44;5127382;28;20077;-67
2020/12/29 11:03:38;;;;;;;20.05;9.65;;;;;;;-2.04;56.17;100693.13;5128780;28;20039;-71
2020/12/29 11:06:17;;;;;;;16.52;9.70;;;;;;;-1.88;56.15;100689.38;5128947;28;20564;-72
2020/12/29 11:08:43;;;;;;;16.13;8.57;;;;;;;-1.81;55.69;100708.53;5131656;27;20042;-69
2020/12/29 11:11:08;;;;;;;21.35;9.52;;;;;;;-1.94;55.74;100663.22;5131528;27;20027;-73
2020/12/29 11:13:34;;;;;;;16.50;7.63;;;;;;;-1.68;55.67;100703.97;5131272;27;20031;-71